Overview Statistics Trail Chart Weather Telemetry Raw packets
 

This is the latest recevied weather packets stored in our database for station/object 9M4GEK-3. If no packets are shown the sender has not sent any weather packets the latest 10 day(s).

<< 1 2 3 4 >>
Time Temp. Humidity Pressure Rain* Wind** Luminosity Snow
1788609258 41.67° C 33% 1010.3 hPa - - - -
1788608873 31.11° C 53% 1009.6 hPa - - - -
1788607979 31.67° C 51% 1009.3 hPa - - - -
1788607074 32.22° C 50% 1009.1 hPa - - - -
1788606174 32.22° C 49% 1008.9 hPa - - - -
1788605274 33.33° C 47% 1008.7 hPa - - - -
1788604382 34.44° C 44% 1008.4 hPa - - - -
1788604381 42.78° C 31% 1010.6 hPa - - - -
1788603476 35° C 42% 1008.3 hPa - - - -
1788602575 35.56° C 39% 1008.3 hPa - - - -
1788601674 36.67° C 38% 1008.4 hPa - - - -
1788600775 37.78° C 37% 1008.3 hPa - - - -
1788599875 38.33° C 37% 1008.2 hPa - - - -
1788599564 43.89° C 30% 1010.8 hPa - - - -
1788598975 38.89° C 36% 1008.3 hPa - - - -
1788598077 38.89° C 36% 1008.3 hPa - - - -
1788597175 40° C 34% 1008.4 hPa - - - -
1788596275 40.56° C 34% 1008.4 hPa - - - -
1788595376 41.11° C 33% 1008.6 hPa - - - -
1788594476 41.11° C 34% 1008.8 hPa - - - -
1788593576 41.11° C 32% 1008.9 hPa - - - -
1788592677 42.22° C 30% 1008.9 hPa - - - -
1788591778 43.89° C 29% 1009.4 hPa - - - -
1788590957 40° C 35% 1011.1 hPa - - - -
1788590878 43.89° C 29% 1009.7 hPa - - - -

* Rain since midnight (hover to see other rain measurements)
** Current wind speed in m/s (hover to see current wind gust speed)